Time,TemperatureF,DewpointF,PressureIn,WindDirection,WindDirectionDegrees,WindSpeedMPH,WindSpeedGustMPH,Humidity,HourlyPrecipIn,Conditions,Clouds,dailyrainin,SoftwareType,DateUTC
2013-03-09 00:11:00,34.2,25.0,30.16,WNW,302,2.0,-999.0,68,-99.99,,,0.11,weatherlink.com 1.10,2013-03-09 05:11:00,
2013-03-09 00:26:00,34.3,24.0,30.16,East,88,0.0,-999.0,67,-99.99,,,0.11,weatherlink.com 1.10,2013-03-09 05:26:00,
2013-03-09 00:41:00,33.9,24.0,30.16,NNW,329,1.0,-999.0,68,-99.99,,,0.11,weatherlink.com 1.10,2013-03-09 05:41:00,
2013-03-09 00:56:00,33.8,25.0,30.16,West,281,0.0,-999.0,69,-99.99,,,0.11,weatherlink.com 1.10,2013-03-09 05:56:00,
2013-03-09 01:11:00,33.6,24.0,30.16,NW,313,0.0,-999.0,68,-99.99,,,0.11,weatherlink.com 1.10,2013-03-09 06:11:00,
2013-03-09 01:26:00,33.7,24.0,30.16,NE,52,2.0,-999.0,67,-99.99,,,0.11,weatherlink.com 1.10,2013-03-09 06:26:00,
2013-03-09 01:41:00,33.4,23.0,30.16,NNW,338,2.0,-999.0,67,-99.99,,,0.11,weatherlink.com 1.10,2013-03-09 06:41:00,
2013-03-09 01:56:00,33.0,24.0,30.16,North,350,0.0,-999.0,69,-99.99,,,0.11,weatherlink.com 1.10,2013-03-09 06:56:00,
2013-03-09 02:11:00,32.8,24.0,30.16,North,355,0.0,-999.0,70,-99.99,,,0.11,weatherlink.com 1.10,2013-03-09 07:11:00,
2013-03-09 02:26:00,32.4,24.0,30.16,East,92,0.0,-999.0,70,-99.99,,,0.11,weatherlink.com 1.10,2013-03-09 07:26:00,
2013-03-09 02:41:00,31.8,24.0,30.15,ENE,71,0.0,-999.0,72,-99.99,,,0.11,weatherlink.com 1.10,2013-03-09 07:41:00,
2013-03-09 02:56:00,31.8,24.0,30.15,NNE,30,1.0,-999.0,72,-99.99,,,0.11,weatherlink.com 1.10,2013-03-09 07:56:00,
2013-03-09 03:11:00,31.6,24.0,30.15,NNE,29,0.0,-999.0,72,-99.99,,,0.11,weatherlink.com 1.10,2013-03-09 08:11:00,
2013-03-09 03:26:00,31.2,23.0,30.15,NE,44,0.0,-999.0,73,-99.99,,,0.11,weatherlink.com 1.10,2013-03-09 08:26:00,
2013-03-09 03:41:00,30.9,24.0,30.16,NNW,338,2.0,-999.0,74,-99.99,,,0.11,weatherlink.com 1.10,2013-03-09 08:41:00,
2013-03-09 03:56:00,31.0,24.0,30.16,NW,319,0.0,-999.0,74,-99.99,,,0.11,weatherlink.com 1.10,2013-03-09 08:56:00,
2013-03-09 04:11:00,31.1,24.0,30.16,NW,321,0.0,-999.0,74,-99.99,,,0.11,weatherlink.com 1.10,2013-03-09 09:11:00,
2013-03-09 04:26:00,30.8,23.0,30.17,NE,53,0.0,-999.0,74,-99.99,,,0.11,weatherlink.com 1.10,2013-03-09 09:26:00,
2013-03-09 04:41:00,30.9,24.0,30.18,ESE,103,1.0,-999.0,74,-99.99,,,0.11,weatherlink.com 1.10,2013-03-09 09:41:00,
2013-03-09 04:56:00,30.7,23.0,30.19,NNE,26,0.0,-999.0,74,-99.99,,,0.11,weatherlink.com 1.10,2013-03-09 09:56:00,
2013-03-09 05:11:00,30.0,23.0,30.19,ENE,72,0.0,-999.0,76,-99.99,,,0.11,weatherlink.com 1.10,2013-03-09 10:11:00,
2013-03-09 05:26:00,30.2,23.0,30.20,NNW,338,4.0,-999.0,75,-99.99,,,0.11,weatherlink.com 1.10,2013-03-09 10:26:00,
2013-03-09 05:41:00,29.8,23.0,30.20,North,355,0.0,-999.0,76,-99.99,,,0.11,weatherlink.com 1.10,2013-03-09 10:41:00,
2013-03-09 05:57:00,29.4,23.0,30.20,NNE,30,0.0,-999.0,77,-99.99,,,0.11,weatherlink.com 1.10,2013-03-09 10:57:00,
2013-03-09 06:12:00,29.1,23.0,30.20,NNE,30,0.0,-999.0,78,-99.99,,,0.00,weatherlink.com 1.10,2013-03-09 11:12:00,
2013-03-09 06:27:00,29.0,23.0,30.20,NE,36,0.0,-999.0,78,-99.99,,,0.00,weatherlink.com 1.10,2013-03-09 11:27:00,
2013-03-09 06:42:00,29.3,23.0,30.21,NNE,32,0.0,-999.0,77,-99.99,,,0.00,weatherlink.com 1.10,2013-03-09 11:42:00,
2013-03-09 06:57:00,29.7,23.0,30.22,ENE,67,1.0,-999.0,76,-99.99,,,0.00,weatherlink.com 1.10,2013-03-09 11:57:00,
2013-03-09 07:12:00,30.6,24.0,30.23,NE,38,0.0,-999.0,75,-99.99,,,0.00,weatherlink.com 1.10,2013-03-09 12:12:00,
2013-03-09 07:27:00,31.5,23.0,30.24,NW,309,0.0,-999.0,72,-99.99,,,0.00,weatherlink.com 1.10,2013-03-09 12:27:00,
2013-03-09 07:42:00,32.1,24.0,30.23,ENE,67,1.0,-999.0,72,-99.99,,,0.00,weatherlink.com 1.10,2013-03-09 12:42:00,
2013-03-09 07:57:00,33.5,24.0,30.23,NW,311,0.0,-999.0,69,-99.99,,,0.00,weatherlink.com 1.10,2013-03-09 12:57:00,
2013-03-09 08:12:00,34.5,24.0,30.23,ENE,64,0.0,-999.0,66,-99.99,,,0.00,weatherlink.com 1.10,2013-03-09 13:12:00,
2013-03-09 08:27:00,35.5,24.0,30.23,NE,41,2.0,-999.0,64,-99.99,,,0.00,weatherlink.com 1.10,2013-03-09 13:27:00,
2013-03-09 08:42:00,35.9,24.0,30.24,NNW,327,0.0,-999.0,63,-99.99,,,0.01,weatherlink.com 1.10,2013-03-09 13:42:00,
2013-03-09 08:57:00,37.3,24.0,30.24,NW,305,0.0,-999.0,59,-99.99,,,0.01,weatherlink.com 1.10,2013-03-09 13:57:00,
2013-03-09 09:12:00,38.5,23.0,30.24,NNW,335,3.0,-999.0,55,-99.99,,,0.01,weatherlink.com 1.10,2013-03-09 14:12:00,
2013-03-09 09:27:00,39.5,24.0,30.24,ENE,59,0.0,-999.0,54,-99.99,,,0.02,weatherlink.com 1.10,2013-03-09 14:27:00,
2013-03-09 09:42:00,41.0,23.0,30.23,ENE,76,1.0,-999.0,50,-99.99,,,0.02,weatherlink.com 1.10,2013-03-09 14:42:00,
2013-03-09 09:58:00,41.9,23.0,30.23,NNE,24,3.0,-999.0,47,-99.99,,,0.02,weatherlink.com 1.10,2013-03-09 14:58:00,
2013-03-09 10:13:00,42.8,20.0,30.23,ENE,59,4.0,-999.0,40,-99.99,,,0.02,weatherlink.com 1.10,2013-03-09 15:13:00,
2013-03-09 10:28:00,43.3,21.0,30.23,ENE,61,0.0,-999.0,41,-99.99,,,0.03,weatherlink.com 1.10,2013-03-09 15:28:00,
2013-03-09 10:43:00,44.4,21.0,30.23,East,92,4.0,-999.0,40,-99.99,,,0.03,weatherlink.com 1.10,2013-03-09 15:43:00,
2013-03-09 10:58:00,44.3,20.0,30.24,NE,56,4.0,-999.0,38,-99.99,,,0.04,weatherlink.com 1.10,2013-03-09 15:58:00,
2013-03-09 11:13:00,45.2,23.0,30.23,East,92,0.0,-999.0,41,-99.99,,,0.04,weatherlink.com 1.10,2013-03-09 16:13:00,
2013-03-09 11:28:00,45.7,23.0,30.24,SE,136,0.0,-999.0,41,-99.99,,,0.05,weatherlink.com 1.10,2013-03-09 16:28:00,
2013-03-09 11:43:00,45.7,21.0,30.24,NW,314,0.0,-999.0,37,-99.99,,,0.06,weatherlink.com 1.10,2013-03-09 16:43:00,
2013-03-09 11:58:00,46.0,19.0,30.23,NNE,22,2.0,-999.0,34,-99.99,,,0.07,weatherlink.com 1.10,2013-03-09 16:58:00,
2013-03-09 12:13:00,47.1,24.0,30.23,ESE,103,0.0,-999.0,40,-99.99,,,0.08,weatherlink.com 1.10,2013-03-09 17:13:00,
2013-03-09 12:28:00,48.0,21.0,30.23,North,11,0.0,-999.0,35,-99.99,,,0.09,weatherlink.com 1.10,2013-03-09 17:28:00,
2013-03-09 12:43:00,48.5,20.0,30.22,South,188,0.0,-999.0,33,-99.99,,,0.11,weatherlink.com 1.10,2013-03-09 17:43:00,
2013-03-09 12:58:00,49.1,22.0,30.22,WNW,288,0.0,-999.0,35,-99.99,,,0.12,weatherlink.com 1.10,2013-03-09 17:58:00,
2013-03-09 13:13:00,49.2,24.0,30.22,NE,53,0.0,-999.0,37,-99.99,,,0.14,weatherlink.com 1.10,2013-03-09 18:13:00,
2013-03-09 13:28:00,48.3,24.0,30.22,ENE,67,1.0,-999.0,38,-99.99,,,0.16,weatherlink.com 1.10,2013-03-09 18:28:00,
2013-03-09 13:43:00,49.0,24.0,30.22,South,171,0.0,-999.0,38,-99.99,,,0.19,weatherlink.com 1.10,2013-03-09 18:43:00,
2013-03-09 13:58:00,49.3,24.0,30.21,South,190,0.0,-999.0,38,-99.99,,,0.21,weatherlink.com 1.10,2013-03-09 18:58:00,
2013-03-09 14:13:00,49.0,25.0,30.21,NE,37,0.0,-999.0,39,-99.99,,,0.24,weatherlink.com 1.10,2013-03-09 19:13:00,
2013-03-09 14:28:00,49.6,27.0,30.21,SSE,163,0.0,-999.0,41,-99.99,,,0.27,weatherlink.com 1.10,2013-03-09 19:28:00,
2013-03-09 14:43:00,49.3,26.0,30.21,South,171,0.0,-999.0,41,-99.99,,,0.29,weatherlink.com 1.10,2013-03-09 19:43:00,
2013-03-09 14:58:00,49.3,26.0,30.21,NE,46,0.0,-999.0,41,-99.99,,,0.32,weatherlink.com 1.10,2013-03-09 19:58:00,
2013-03-09 15:13:00,49.1,27.0,30.21,SE,130,0.0,-999.0,42,-99.99,,,0.34,weatherlink.com 1.10,2013-03-09 20:13:00,
2013-03-09 15:28:00,48.7,26.0,30.22,NNE,32,1.0,-999.0,41,-99.99,,,0.36,weatherlink.com 1.10,2013-03-09 20:28:00,
2013-03-09 15:43:00,48.2,26.0,30.22,NE,39,0.0,-999.0,42,-99.99,,,0.37,weatherlink.com 1.10,2013-03-09 20:43:00,
2013-03-09 15:58:00,47.7,27.0,30.22,ENE,57,4.0,-999.0,44,-99.99,,,0.37,weatherlink.com 1.10,2013-03-09 20:58:00,
2013-03-09 16:13:00,47.3,29.0,30.23,NE,44,0.0,-999.0,49,-99.99,,,0.37,weatherlink.com 1.10,2013-03-09 21:13:00,
2013-03-09 16:28:00,46.2,30.0,30.24,ENE,59,0.0,-999.0,54,-99.99,,,0.37,weatherlink.com 1.10,2013-03-09 21:28:00,
2013-03-09 16:43:00,45.3,31.0,30.24,SE,142,0.0,-999.0,57,-99.99,,,0.37,weatherlink.com 1.10,2013-03-09 21:43:00,
2013-03-09 16:58:00,44.3,30.0,30.25,SE,142,1.0,-999.0,58,-99.99,,,0.37,weatherlink.com 1.10,2013-03-09 21:58:00,
2013-03-09 17:13:00,43.4,30.0,30.25,ESE,104,0.0,-999.0,60,-99.99,,,0.37,weatherlink.com 1.10,2013-03-09 22:13:00,
2013-03-09 17:28:00,42.3,30.0,30.27,ESE,104,0.0,-999.0,63,-99.99,,,0.37,weatherlink.com 1.10,2013-03-09 22:28:00,
2013-03-09 17:44:00,41.2,30.0,30.28,ESE,104,0.0,-999.0,65,-99.99,,,0.37,weatherlink.com 1.10,2013-03-09 22:44:00,
2013-03-09 17:59:00,40.0,30.0,30.28,ESE,104,0.0,-999.0,67,-99.99,,,0.37,weatherlink.com 1.10,2013-03-09 22:59:00,
2013-03-09 18:14:00,39.1,30.0,30.29,ESE,104,0.0,-999.0,69,-99.99,,,0.37,weatherlink.com 1.10,2013-03-09 23:14:00,
2013-03-09 18:29:00,38.0,30.0,30.29,ESE,104,0.0,-999.0,72,-99.99,,,0.37,weatherlink.com 1.10,2013-03-09 23:29:00,
2013-03-09 18:44:00,37.2,29.0,30.29,ESE,104,0.0,-999.0,73,-99.99,,,0.37,weatherlink.com 1.10,2013-03-09 23:44:00,
2013-03-09 18:59:00,36.5,29.0,30.30,ESE,104,0.0,-999.0,74,-99.99,,,0.37,weatherlink.com 1.10,2013-03-09 23:59:00,
2013-03-09 19:14:00,35.7,29.0,30.30,ESE,104,0.0,-999.0,77,-99.99,,,0.37,weatherlink.com 1.10,2013-03-10 00:14:00,
2013-03-09 19:29:00,34.8,29.0,30.31,ESE,104,0.0,-999.0,78,-99.99,,,0.37,weatherlink.com 1.10,2013-03-10 00:29:00,
2013-03-09 19:44:00,33.7,29.0,30.31,ESE,104,0.0,-999.0,82,-99.99,,,0.37,weatherlink.com 1.10,2013-03-10 00:44:00,
2013-03-09 19:59:00,32.8,28.0,30.32,ESE,104,0.0,-999.0,83,-99.99,,,0.37,weatherlink.com 1.10,2013-03-10 00:59:00,
2013-03-09 20:14:00,32.0,28.0,30.32,ESE,104,0.0,-999.0,84,-99.99,,,0.37,weatherlink.com 1.10,2013-03-10 01:14:00,
2013-03-09 20:29:00,31.2,27.0,30.32,ESE,104,0.0,-999.0,85,-99.99,,,0.37,weatherlink.com 1.10,2013-03-10 01:29:00,
2013-03-09 20:44:00,30.5,27.0,30.33,ESE,104,0.0,-999.0,87,-99.99,,,0.37,weatherlink.com 1.10,2013-03-10 01:44:00,
2013-03-09 20:59:00,29.9,27.0,30.34,ESE,104,0.0,-999.0,88,-99.99,,,0.37,weatherlink.com 1.10,2013-03-10 01:59:00,
2013-03-09 21:14:00,29.4,27.0,30.34,ESE,104,0.0,-999.0,89,-99.99,,,0.37,weatherlink.com 1.10,2013-03-10 02:14:00,
2013-03-09 21:29:00,28.9,26.0,30.34,ESE,104,0.0,-999.0,90,-99.99,,,0.37,weatherlink.com 1.10,2013-03-10 02:29:00,
2013-03-09 21:44:00,28.4,26.0,30.34,ESE,104,0.0,-999.0,90,-99.99,,,0.37,weatherlink.com 1.10,2013-03-10 02:44:00,
2013-03-09 21:59:00,28.0,26.0,30.33,ESE,104,0.0,-999.0,91,-99.99,,,0.37,weatherlink.com 1.10,2013-03-10 02:59:00,
2013-03-09 22:14:00,27.7,26.0,30.33,ESE,104,0.0,-999.0,92,-99.99,,,0.37,weatherlink.com 1.10,2013-03-10 03:14:00,
2013-03-09 22:29:00,27.4,25.0,30.33,ESE,104,0.0,-999.0,92,-99.99,,,0.37,weatherlink.com 1.10,2013-03-10 03:29:00,
2013-03-09 22:44:00,27.0,25.0,30.33,ESE,104,0.0,-999.0,92,-99.99,,,0.37,weatherlink.com 1.10,2013-03-10 03:44:00,
2013-03-09 22:59:00,26.5,25.0,30.33,ESE,104,0.0,-999.0,92,-99.99,,,0.37,weatherlink.com 1.10,2013-03-10 03:59:00,
2013-03-09 23:14:00,26.2,25.0,30.34,ESE,104,0.0,-999.0,93,-99.99,,,0.37,weatherlink.com 1.10,2013-03-10 04:14:00,
2013-03-09 23:29:00,25.7,24.0,30.34,ESE,104,0.0,-999.0,93,-99.99,,,0.37,weatherlink.com 1.10,2013-03-10 04:29:00,
2013-03-09 23:44:00,25.9,24.0,30.34,ESE,104,0.0,-999.0,94,-99.99,,,0.37,weatherlink.com 1.10,2013-03-10 04:44:00,
2013-03-09 23:59:00,26.0,25.0,30.35,ESE,104,0.0,-999.0,94,-99.99,,,0.37,weatherlink.com 1.10,2013-03-10 04:59:00,